Time;durP1;ratioP1;P1;durP2;ratioP2;P2;SDS_P1;SDS_P2;PMS_P1;PMS_P2;Temp;Humidity;BMP_temperature;BMP_pressure;BME280_temperature;BME280_humidity;BME280_pressure;Samples;Min_cycle;Max_cycle;Signal;HPM_P1;HPM_P2
2022/10/15 04:01:43;;;;;;;0.50;0.10;;;16.00;1.00;;;;;;5474392;23;20498;-75
2022/10/15 04:04:12;;;;;;;0.50;0.10;;;15.80;1.00;;;;;;4965784;28;20446;-73
2022/10/15 04:06:40;;;;;;;0.60;0.10;;;15.80;1.00;;;;;;4965838;28;20462;-75
2022/10/15 04:09:09;;;;;;;0.60;0.10;;;15.80;1.00;;;;;;4971684;28;20450;-75
2022/10/15 04:11:37;;;;;;;0.53;0.10;;;15.70;5.40;;;;;;4965994;28;20483;-73
2022/10/15 04:14:05;;;;;;;0.50;0.10;;;15.70;8.40;;;;;;4956866;29;20451;-75
2022/10/15 04:16:33;;;;;;;0.70;0.50;;;15.60;13.00;;;;;;4956025;29;20451;-75
2022/10/15 04:19:02;;;;;;;0.60;0.30;;;15.70;18.10;;;;;;4955073;28;20525;-75
2022/10/15 04:21:36;;;;;;;2.13;1.20;;;15.60;18.60;;;;;;4955940;28;20545;-75
2022/10/15 04:24:04;;;;;;;0.60;0.20;;;15.60;20.10;;;;;;4955761;29;20509;-75
2022/10/15 04:26:32;;;;;;;1.20;0.83;;;15.60;20.10;;;;;;4955929;29;20502;-76
2022/10/15 04:29:00;;;;;;;3.03;1.33;;;15.60;20.10;;;;;;4955725;29;20462;-74
2022/10/15 04:31:28;;;;;;;0.50;0.10;;;15.60;18.60;;;;;;4947033;29;20991;-76
2022/10/15 04:33:56;;;;;;;0.50;0.20;;;15.50;20.00;;;;;;4954136;29;20459;-76
2022/10/15 04:36:25;;;;;;;0.53;0.10;;;15.50;22.50;;;;;;4955761;29;20470;-76
2022/10/15 04:38:53;;;;;;;0.70;0.40;;;15.50;27.80;;;;;;4955470;29;20479;-75
2022/10/15 04:41:21;;;;;;;0.50;0.10;;;15.50;30.50;;;;;;4955313;28;20567;-75
2022/10/15 04:43:49;;;;;;;0.53;0.10;;;15.40;33.30;;;;;;4955061;29;20455;-75
2022/10/15 04:46:16;;;;;;;0.50;0.10;;;15.50;38.30;;;;;;4955330;29;20451;-75
2022/10/15 04:48:44;;;;;;;0.50;0.10;;;15.50;41.30;;;;;;4955424;29;20443;-75
2022/10/15 04:51:14;;;;;;;1.23;1.13;;;15.50;42.20;;;;;;4953823;29;21012;-75
2022/10/15 04:53:44;;;;;;;0.53;0.10;;;15.50;43.50;;;;;;4946971;29;20909;-75
2022/10/15 04:56:16;;;;;;;0.50;0.10;;;15.60;43.90;;;;;;4955310;29;20451;-76
2022/10/15 04:58:45;;;;;;;0.60;0.10;;;15.60;44.60;;;;;;4955160;29;20478;-75
2022/10/15 05:01:15;;;;;;;0.50;0.10;;;15.60;42.40;;;;;;4954615;29;20517;-76
2022/10/15 05:03:44;;;;;;;2.10;2.00;;;15.60;43.10;;;;;;4954599;29;20934;-75
2022/10/15 05:06:14;;;;;;;0.50;0.20;;;15.70;42.80;;;;;;4954767;29;21033;-74
2022/10/15 05:08:44;;;;;;;0.50;0.10;;;15.60;38.60;;;;;;4954926;29;20482;-75
2022/10/15 05:11:13;;;;;;;0.60;0.10;;;15.60;36.20;;;;;;4956572;28;20529;-75
2022/10/15 05:13:42;;;;;;;0.60;0.30;;;15.70;36.90;;;;;;4956178;29;21001;-75
2022/10/15 05:16:12;;;;;;;0.53;0.10;;;15.60;33.00;;;;;;4956128;29;20490;-75
2022/10/15 05:18:40;;;;;;;0.50;0.10;;;15.60;33.00;;;;;;4956488;29;20815;-75
2022/10/15 05:21:08;;;;;;;0.50;0.10;;;15.50;31.30;;;;;;4955908;29;20998;-74
2022/10/15 05:23:36;;;;;;;0.60;0.10;;;15.50;33.50;;;;;;4955333;29;20498;-75
2022/10/15 05:26:07;;;;;;;0.50;0.10;;;15.60;36.40;;;;;;4954755;29;20491;-75
2022/10/15 05:28:35;;;;;;;0.97;0.40;;;15.60;36.20;;;;;;4954769;28;20443;-75
2022/10/15 05:31:05;;;;;;;0.50;0.10;;;15.50;29.90;;;;;;4954643;29;20467;-75
2022/10/15 05:33:33;;;;;;;1.00;0.50;;;15.50;32.30;;;;;;4954265;29;20478;-75
2022/10/15 05:36:10;;;;;;;1.17;0.87;;;15.50;33.20;;;;;;4954348;29;20818;-75
2022/10/15 05:38:39;;;;;;;0.60;0.10;;;15.50;33.40;;;;;;4949161;29;20459;-76
2022/10/15 05:41:08;;;;;;;0.60;0.10;;;15.50;34.00;;;;;;4949310;29;20530;-75
2022/10/15 05:43:36;;;;;;;0.50;0.10;;;15.50;35.20;;;;;;4954382;29;20470;-75
2022/10/15 05:46:08;;;;;;;0.53;0.10;;;15.50;36.50;;;;;;4955373;29;20455;-76
2022/10/15 05:48:36;;;;;;;0.50;0.10;;;15.50;35.80;;;;;;4966255;29;20501;-75
2022/10/15 05:51:06;;;;;;;0.50;0.10;;;15.60;33.60;;;;;;4970449;28;20466;-75
2022/10/15 05:53:35;;;;;;;0.50;0.10;;;15.60;35.40;;;;;;4963943;29;20557;-75
2022/10/15 05:56:04;;;;;;;0.70;0.47;;;15.60;35.00;;;;;;4958023;29;20459;-75
2022/10/15 05:58:34;;;;;;;0.80;0.80;;;15.60;32.50;;;;;;4956916;29;20462;-75
2022/10/15 06:01:06;;;;;;;0.67;0.27;;;15.50;27.50;;;;;;4955821;29;20479;-75
2022/10/15 06:03:34;;;;;;;0.50;0.10;;;15.50;29.30;;;;;;4955369;29;20442;-75
2022/10/15 06:06:02;;;;;;;0.50;0.10;;;15.50;29.50;;;;;;4954674;29;20498;-75
2022/10/15 06:08:30;;;;;;;0.80;0.70;;;15.50;29.50;;;;;;4954670;29;20458;-76
2022/10/15 06:11:02;;;;;;;1.90;1.70;;;15.50;29.00;;;;;;4954689;28;20904;-76
2022/10/15 06:13:39;;;;;;;2.50;0.87;;;15.50;30.00;;;;;;4952880;29;20985;-75
2022/10/15 06:16:07;;;;;;;0.67;0.20;;;15.50;29.40;;;;;;4954732;29;20451;-76
2022/10/15 06:18:36;;;;;;;0.60;0.40;;;15.50;26.90;;;;;;4954862;29;20458;-74
2022/10/15 06:21:04;;;;;;;4.63;1.23;;;15.40;25.50;;;;;;4954082;28;20506;-76
2022/10/15 06:23:32;;;;;;;0.50;0.10;;;15.40;27.00;;;;;;4953466;29;20506;-75
2022/10/15 06:26:02;;;;;;;0.50;0.10;;;15.30;27.20;;;;;;4954601;29;20443;-75
2022/10/15 06:28:30;;;;;;;0.60;0.10;;;14.90;29.40;;;;;;4954797;29;21091;-76
2022/10/15 06:31:00;;;;;;;0.50;0.10;;;15.40;27.10;;;;;;4953668;28;20479;-75
2022/10/15 06:33:29;;;;;;;0.90;0.30;;;15.40;28.20;;;;;;4953805;29;20545;-76
2022/10/15 06:36:02;;;;;;;0.60;0.40;;;15.40;25.20;;;;;;4953007;29;20865;-76
2022/10/15 06:38:30;;;;;;;0.50;0.10;;;15.40;23.60;;;;;;4954215;29;20447;-76
2022/10/15 06:40:57;;;;;;;0.50;0.10;;;15.40;24.50;;;;;;4953922;28;20471;-75
2022/10/15 06:43:26;;;;;;;0.93;0.30;;;15.40;26.20;;;;;;4957180;28;20474;-76
2022/10/15 06:46:00;;;;;;;3.03;2.40;;;15.50;26.30;;;;;;4957816;29;20486;-76
2022/10/15 06:48:28;;;;;;;0.70;0.30;;;15.50;23.80;;;;;;4958943;29;20450;-75
2022/10/15 06:50:59;;;;;;;0.50;0.10;;;15.50;18.50;;;;;;4957863;28;20837;-76
2022/10/15 06:53:28;;;;;;;0.77;0.77;;;15.50;20.20;;;;;;4943351;29;20479;-76
2022/10/15 06:55:57;;;;;;;0.57;0.20;;;15.50;20.00;;;;;;4957912;29;20459;-75
2022/10/15 06:58:25;;;;;;;0.53;0.20;;;15.40;19.90;;;;;;4952477;29;20459;-75
2022/10/15 07:00:53;;;;;;;1.90;1.53;;;15.40;18.40;;;;;;4942651;29;20894;-75
2022/10/15 07:03:22;;;;;;;0.57;0.23;;;15.30;19.70;;;;;;4956934;29;20957;-74
2022/10/15 07:05:50;;;;;;;0.53;0.20;;;15.40;20.00;;;;;;4957445;29;20443;-76
2022/10/15 07:08:18;;;;;;;0.60;0.47;;;15.30;19.80;;;;;;4957352;29;20455;-76
2022/10/15 07:10:46;;;;;;;2.20;0.90;;;15.30;18.40;;;;;;4953656;29;21028;-76
2022/10/15 07:13:15;;;;;;;0.50;0.10;;;15.30;20.00;;;;;;4955921;29;20537;-76
2022/10/15 07:15:43;;;;;;;0.53;0.10;;;15.30;19.90;;;;;;4957811;29;20454;-75
2022/10/15 07:18:11;;;;;;;0.80;0.50;;;15.30;19.90;;;;;;4957806;29;20588;-75
2022/10/15 07:20:40;;;;;;;0.50;0.20;;;15.40;18.50;;;;;;4956953;29;20459;-75
2022/10/15 07:23:08;;;;;;;0.60;0.30;;;15.40;20.00;;;;;;4956534;29;20489;-75
2022/10/15 07:25:35;;;;;;;0.50;0.10;;;15.40;19.90;;;;;;4957884;29;20455;-76
2022/10/15 07:28:04;;;;;;;0.67;0.40;;;15.40;19.90;;;;;;4958756;29;20442;-75
2022/10/15 07:30:32;;;;;;;0.90;0.47;;;15.50;18.50;;;;;;4952980;29;20936;-76
2022/10/15 07:33:00;;;;;;;0.50;0.23;;;15.50;18.50;;;;;;4940369;29;20448;-74
2022/10/15 07:35:30;;;;;;;0.57;0.10;;;15.50;20.20;;;;;;4939367;29;20456;-75
2022/10/15 07:38:01;;;;;;;0.50;0.10;;;15.50;20.00;;;;;;4939118;29;20819;-76
2022/10/15 07:40:30;;;;;;;0.50;0.10;;;15.60;18.50;;;;;;4939695;29;20857;-76
2022/10/15 07:42:59;;;;;;;1.90;1.80;;;15.50;20.00;;;;;;4947784;29;20439;-76
2022/10/15 07:45:28;;;;;;;0.60;0.10;;;15.60;18.70;;;;;;4957282;29;20486;-75
2022/10/15 07:47:55;;;;;;;0.50;0.10;;;15.60;19.80;;;;;;4955540;29;20462;-76
2022/10/15 07:50:23;;;;;;;0.50;0.10;;;15.60;19.50;;;;;;4956850;29;20451;-75
2022/10/15 07:52:54;;;;;;;0.73;0.20;;;15.70;20.20;;;;;;4955374;28;20534;-75
2022/10/15 07:55:23;;;;;;;0.50;0.10;;;15.70;20.10;;;;;;4956482;29;20885;-75
2022/10/15 07:57:51;;;;;;;0.60;0.20;;;15.70;20.20;;;;;;4956681;29;20451;-75
2022/10/15 08:00:18;;;;;;;0.50;0.10;;;15.80;20.20;;;;;;4956379;29;20447;-76
2022/10/15 08:02:46;;;;;;;0.50;0.10;;;15.70;17.30;;;;;;4955884;28;20812;-76
2022/10/15 08:05:15;;;;;;;0.50;0.10;;;15.80;19.40;;;;;;4956296;29;20518;-75
2022/10/15 08:07:43;;;;;;;0.67;0.40;;;15.80;20.30;;;;;;4956123;29;20475;-76
2022/10/15 08:10:12;;;;;;;0.50;0.10;;;15.90;20.30;;;;;;4954667;29;20459;-75
2022/10/15 08:12:41;;;;;;;0.60;0.50;;;15.90;16.90;;;;;;4953380;28;20533;-76
2022/10/15 08:15:10;;;;;;;0.50;0.17;;;15.90;14.70;;;;;;4946778;29;20490;-75
2022/10/15 08:17:38;;;;;;;0.60;0.10;;;15.90;10.40;;;;;;4945520;29;20882;-77
2022/10/15 08:20:07;;;;;;;0.50;0.10;;;15.90;9.90;;;;;;4951088;29;20506;-75
2022/10/15 08:22:35;;;;;;;1.63;0.40;;;16.00;7.70;;;;;;4950910;28;20488;-75
2022/10/15 08:25:03;;;;;;;0.60;0.10;;;15.90;4.00;;;;;;4957592;29;20474;-75
2022/10/15 08:27:31;;;;;;;2.10;0.87;;;16.00;4.60;;;;;;4960093;29;20467;-78
2022/10/15 08:30:00;;;;;;;0.50;0.10;;;16.00;4.70;;;;;;4961227;29;20451;-76
2022/10/15 08:32:28;;;;;;;0.60;0.10;;;16.00;2.10;;;;;;4953582;29;20515;-75
2022/10/15 08:34:56;;;;;;;0.60;0.40;;;16.00;4.50;;;;;;4949484;29;20487;-75
2022/10/15 08:37:24;;;;;;;0.57;0.10;;;16.10;3.90;;;;;;4957621;29;20598;-76
2022/10/15 08:39:52;;;;;;;0.60;0.17;;;16.00;1.30;;;;;;4950512;29;20447;-77
2022/10/15 08:42:27;;;;;;;0.60;0.20;;;16.10;1.00;;;;;;4946001;28;20484;-78
2022/10/15 08:44:58;;;;;;;0.60;0.10;;;16.10;1.10;;;;;;4937689;29;20451;-76
2022/10/15 08:47:32;;;;;;;0.60;0.10;;;16.10;1.00;;;;;;4952454;29;20463;-76
2022/10/15 08:50:02;;;;;;;0.80;0.53;;;16.20;1.00;;;;;;4953780;29;20857;-76
2022/10/15 08:52:40;;;;;;;0.53;0.10;;;16.30;1.00;;;;;;4952840;29;20482;-77
2022/10/15 08:55:11;;;;;;;0.60;0.10;;;16.40;1.00;;;;;;4956546;29;20482;-76
2022/10/15 08:57:45;;;;;;;0.60;0.10;;;16.20;1.10;;;;;;4954102;29;20471;-76
2022/10/15 09:00:19;;;;;;;0.60;0.10;;;16.40;1.00;;;;;;4947210;29;20469;-76
2022/10/15 09:02:57;;;;;;;0.60;0.10;;;16.50;1.00;;;;;;4950588;29;20510;-76
2022/10/15 09:05:31;;;;;;;0.60;0.10;;;16.50;1.00;;;;;;4948152;29;20514;-76
2022/10/15 09:08:06;;;;;;;0.60;0.13;;;16.50;1.00;;;;;;4942371;29;20455;-77
2022/10/15 09:10:40;;;;;;;0.60;0.10;;;16.60;1.00;;;;;;4953338;28;20505;-77
2022/10/15 09:13:14;;;;;;;0.60;0.10;;;16.60;1.00;;;;;;4955306;29;20462;-76
2022/10/15 09:15:50;;;;;;;0.93;0.93;;;16.60;1.00;;;;;;4936750;29;20470;-77
2022/10/15 09:18:23;;;;;;;0.60;0.10;;;16.60;1.00;;;;;;4954634;29;20458;-76
2022/10/15 09:20:52;;;;;;;0.60;0.10;;;16.70;1.00;;;;;;4954861;29;20479;-77
2022/10/15 09:23:23;;;;;;;0.60;0.10;;;16.70;1.00;;;;;;4952481;29;20447;-78
2022/10/15 09:25:57;;;;;;;0.80;0.50;;;16.80;1.00;;;;;;4956407;29;20455;-77
2022/10/15 09:28:32;;;;;;;0.80;0.50;;;16.80;1.00;;;;;;4937770;29;20483;-76
2022/10/15 09:31:00;;;;;;;0.60;0.10;;;16.80;1.00;;;;;;4952757;28;20531;-77
2022/10/15 09:33:36;;;;;;;0.60;0.10;;;16.80;1.00;;;;;;4950385;29;20515;-77
2022/10/15 09:36:17;;;;;;;1.27;0.37;;;16.80;1.00;;;;;;4949390;29;20479;-75
2022/10/15 09:38:54;;;;;;;0.60;0.10;;;16.90;1.00;;;;;;4955616;29;20502;-76
2022/10/15 09:41:31;;;;;;;0.60;0.20;;;16.90;1.00;;;;;;4949544;29;20474;-77
2022/10/15 09:44:00;;;;;;;1.93;1.13;;;17.00;1.00;;;;;;4951746;29;21028;-75
2022/10/15 09:46:33;;;;;;;0.60;0.10;;;17.00;1.00;;;;;;4950098;29;20509;-77
2022/10/15 09:49:10;;;;;;;0.60;0.10;;;17.00;1.00;;;;;;4952135;29;20957;-77
2022/10/15 09:51:43;;;;;;;0.60;0.10;;;17.00;1.00;;;;;;4952069;28;20503;-77
2022/10/15 09:54:20;;;;;;;0.60;0.20;;;17.00;1.00;;;;;;4950019;29;20473;-77
2022/10/15 09:56:54;;;;;;;0.70;0.30;;;17.00;1.00;;;;;;4941481;29;20447;-77
2022/10/15 09:59:23;;;;;;;0.60;0.23;;;17.00;1.00;;;;;;4953329;29;20486;-77
2022/10/15 10:02:00;;;;;;;0.70;0.57;;;17.00;1.00;;;;;;4958302;29;20855;-77
2022/10/15 10:04:30;;;;;;;0.60;0.30;;;17.00;1.00;;;;;;4954100;29;20459;-77
2022/10/15 10:07:02;;;;;;;0.60;0.10;;;17.00;1.00;;;;;;4954800;29;20525;-77
2022/10/15 10:09:33;;;;;;;0.70;0.43;;;17.10;1.00;;;;;;4953430;29;20506;-76
2022/10/15 10:12:03;;;;;;;0.60;0.10;;;17.20;1.00;;;;;;4950173;28;20500;-76
2022/10/15 10:14:35;;;;;;;0.60;0.10;;;17.30;1.00;;;;;;4949527;29;20482;-76
2022/10/15 10:17:14;;;;;;;0.60;0.10;;;17.40;1.00;;;;;;4947077;29;20463;-76
2022/10/15 10:19:43;;;;;;;0.60;0.10;;;17.40;1.00;;;;;;4954299;29;20454;-76
2022/10/15 10:22:17;;;;;;;1.00;0.90;;;17.60;1.00;;;;;;4955825;29;20467;-77
2022/10/15 10:24:46;;;;;;;0.60;0.30;;;17.60;1.00;;;;;;4954647;29;20440;-76
2022/10/15 10:27:22;;;;;;;0.60;0.10;;;17.70;1.00;;;;;;4955832;29;20514;-76
2022/10/15 10:29:56;;;;;;;0.60;0.10;;;17.70;1.00;;;;;;4955611;29;20482;-76
2022/10/15 10:32:29;;;;;;;1.43;0.30;;;17.70;1.00;;;;;;4952341;29;20507;-74
2022/10/15 10:34:59;;;;;;;0.60;0.10;;;17.60;1.00;;;;;;4947843;29;20639;-76
2022/10/15 10:37:28;;;;;;;0.60;0.10;;;17.60;1.00;;;;;;4942322;29;20448;-76
2022/10/15 10:39:59;;;;;;;0.60;0.10;;;17.70;1.00;;;;;;4943464;29;20542;-76
2022/10/15 10:42:32;;;;;;;0.60;0.10;;;17.70;1.00;;;;;;4942904;29;20494;-76
2022/10/15 10:45:21;;;;;;;0.60;0.10;;;17.60;1.00;;;;;;4943623;29;20958;-69
2022/10/15 10:47:50;;;;;;;0.60;0.10;;;17.70;1.00;;;;;;4940645;29;20459;-76
2022/10/15 10:50:29;;;;;;;1.33;0.90;;;17.60;1.00;;;;;;4946926;29;20514;-76
2022/10/15 10:52:58;;;;;;;0.60;0.10;;;17.60;1.00;;;;;;4940148;29;20507;-76
2022/10/15 10:55:37;;;;;;;0.60;0.10;;;17.60;1.00;;;;;;4961898;29;20474;-75
2022/10/15 10:58:04;;;;;;;0.60;0.10;;;17.60;1.00;;;;;;4962496;29;20466;-76
2022/10/15 11:00:39;;;;;;;1.17;0.80;;;17.50;1.00;;;;;;4958464;28;20466;-74
2022/10/15 11:03:21;;;;;;;0.60;0.20;;;17.50;1.00;;;;;;4956828;29;20509;-75
2022/10/15 11:05:58;;;;;;;3.53;3.40;;;17.50;1.00;;;;;;4949209;29;20447;-76
2022/10/15 11:08:35;;;;;;;0.60;0.10;;;17.50;1.00;;;;;;4964052;29;20447;-77
2022/10/15 11:11:10;;;;;;;0.60;0.10;;;17.50;1.00;;;;;;4964310;28;20482;-75
2022/10/15 11:13:50;;;;;;;0.60;0.10;;;17.50;1.00;;;;;;4951661;29;20814;-74
2022/10/15 11:16:30;;;;;;;0.60;0.10;;;17.50;1.00;;;;;;4957346;29;20538;-76
2022/10/15 11:19:12;;;;;;;0.60;0.10;;;17.50;1.00;;;;;;4956742;29;20461;-75
2022/10/15 11:22:04;;;;;;;0.60;0.10;;;17.40;1.00;;;;;;4956373;29;20475;-76
2022/10/15 11:24:39;;;;;;;0.60;0.10;;;17.40;1.00;;;;;;4955008;29;20490;-76
2022/10/15 11:27:34;;;;;;;0.60;0.20;;;17.50;1.00;;;;;;4954403;28;20502;-76
2022/10/15 11:30:09;;;;;;;0.60;0.10;;;17.50;1.00;;;;;;4958052;29;20857;-75
2022/10/15 11:32:52;;;;;;;0.60;0.10;;;17.60;1.00;;;;;;4957236;28;20486;-76
2022/10/15 11:35:42;;;;;;;0.60;0.10;;;17.60;1.00;;;;;;4952349;29;20541;-76
2022/10/15 11:38:38;;;;;;;0.60;0.10;;;17.80;1.00;;;;;;4955141;29;20455;-74
2022/10/15 11:41:26;;;;;;;0.60;0.30;;;18.10;1.00;;;;;;4954266;29;20487;-76
2022/10/15 11:44:07;;;;;;;0.60;0.10;;;18.20;1.00;;;;;;4944163;29;20459;-75
2022/10/15 11:46:41;;;;;;;0.60;0.20;;;18.30;1.00;;;;;;4950107;29;20431;-74
2022/10/15 11:49:31;;;;;;;0.60;0.10;;;18.40;1.00;;;;;;4956615;29;20563;-75
2022/10/15 11:52:13;;;;;;;0.60;0.10;;;18.40;1.00;;;;;;4957842;28;20475;-78
2022/10/15 11:54:46;;;;;;;0.60;0.10;;;18.40;1.00;;;;;;4944948;29;20455;-75
2022/10/15 11:57:18;;;;;;;0.60;0.20;;;18.50;1.00;;;;;;4957879;29;20509;-74
2022/10/15 11:59:51;;;;;;;0.60;0.10;;;18.40;1.00;;;;;;4957927;29;20456;-75
2022/10/15 12:02:22;;;;;;;0.60;0.10;;;18.30;1.00;;;;;;4959128;28;20483;-76
2022/10/15 12:04:54;;;;;;;0.60;0.20;;;18.30;1.00;;;;;;4952536;29;20451;-77
2022/10/15 12:07:25;;;;;;;0.60;0.10;;;18.30;1.00;;;;;;4958865;29;20451;-73
2022/10/15 12:10:00;;;;;;;4.43;3.33;;;18.30;1.00;;;;;;4961600;29;20460;-75
2022/10/15 12:12:38;;;;;;;1.87;1.50;;;18.30;1.00;;;;;;4962274;29;20466;-73
2022/10/15 12:15:24;;;;;;;0.60;0.10;;;18.30;1.00;;;;;;4962330;29;20439;-74
2022/10/15 12:18:04;;;;;;;0.60;0.20;;;18.30;1.00;;;;;;4956278;29;20530;-75
2022/10/15 12:20:31;;;;;;;0.60;0.10;;;18.30;1.00;;;;;;4946087;29;20931;-74
2022/10/15 12:23:02;;;;;;;0.60;0.10;;;18.30;1.00;;;;;;4940029;29;20452;-73
2022/10/15 12:25:44;;;;;;;0.60;0.10;;;18.30;1.00;;;;;;4952895;29;20542;-75
2022/10/15 12:28:18;;;;;;;0.60;0.10;;;18.20;1.00;;;;;;4947211;29;20460;-75
2022/10/15 12:31:00;;;;;;;0.60;0.20;;;18.20;1.00;;;;;;4956506;28;20457;-73
2022/10/15 12:33:45;;;;;;;0.60;0.10;;;18.20;1.00;;;;;;4954046;29;20444;-73
2022/10/15 12:36:26;;;;;;;0.60;0.10;;;18.20;1.00;;;;;;4959947;29;20475;-75
2022/10/15 12:38:59;;;;;;;0.70;0.50;;;18.20;1.00;;;;;;4951764;28;20494;-75
2022/10/15 12:41:41;;;;;;;0.60;0.10;;;18.10;1.00;;;;;;4951952;29;20493;-76
2022/10/15 12:44:19;;;;;;;0.60;0.30;;;18.20;1.00;;;;;;4951356;29;20487;-74
2022/10/15 12:46:47;;;;;;;0.60;0.10;;;18.10;1.00;;;;;;4956841;29;20447;-74
2022/10/15 12:49:49;;;;;;;0.60;0.10;;;18.10;1.00;;;;;;4949321;29;20463;-75
2022/10/15 12:52:52;;;;;;;0.60;0.10;;;18.10;1.00;;;;;;4943484;28;20471;-76
2022/10/15 12:55:23;;;;;;;0.60;0.10;;;18.10;1.00;;;;;;4943304;29;20521;-75
2022/10/15 12:57:54;;;;;;;0.60;0.10;;;18.10;1.00;;;;;;4957158;29;20529;-75
2022/10/15 13:00:35;;;;;;;0.60;0.20;;;18.10;1.00;;;;;;4951792;29;20443;-74
2022/10/15 13:03:22;;;;;;;0.60;0.10;;;18.00;1.00;;;;;;4956671;29;20451;-75
2022/10/15 13:05:50;;;;;;;0.60;0.10;;;18.00;1.00;;;;;;4958470;29;20458;-73
2022/10/15 13:08:24;;;;;;;0.60;0.10;;;18.10;1.00;;;;;;4956402;29;20479;-74
2022/10/15 13:10:56;;;;;;;0.60;0.13;;;18.10;1.00;;;;;;4948252;29;20468;-75
2022/10/15 13:13:29;;;;;;;0.60;0.10;;;18.10;1.00;;;;;;4946215;29;20530;-74
2022/10/15 13:15:59;;;;;;;0.60;0.10;;;18.10;1.00;;;;;;4940074;29;20451;-73
2022/10/15 13:18:30;;;;;;;0.60;0.10;;;18.10;1.00;;;;;;4956347;29;20455;-73
2022/10/15 13:20:59;;;;;;;0.60;0.10;;;18.20;1.00;;;;;;4954865;28;20526;-73
2022/10/15 13:23:31;;;;;;;0.60;0.20;;;18.20;1.00;;;;;;4952909;29;20937;-73
2022/10/15 13:26:17;;;;;;;0.60;0.10;;;18.20;1.00;;;;;;4946835;29;20447;-72
2022/10/15 13:28:47;;;;;;;0.60;0.17;;;18.30;1.00;;;;;;4946490;29;20435;-72
2022/10/15 13:31:21;;;;;;;0.60;0.10;;;18.30;1.00;;;;;;4936587;29;20494;-74
2022/10/15 13:33:55;;;;;;;0.60;0.10;;;18.30;1.00;;;;;;4938992;29;20466;-73
2022/10/15 13:36:27;;;;;;;0.60;0.10;;;18.30;1.00;;;;;;4954669;29;20490;-73
2022/10/15 13:38:58;;;;;;;0.70;0.40;;;18.30;1.00;;;;;;4955066;29;20555;-74
2022/10/15 13:41:28;;;;;;;0.60;0.10;;;18.30;1.00;;;;;;4953821;28;20803;-73
2022/10/15 13:43:59;;;;;;;0.70;0.63;;;18.30;1.00;;;;;;4954037;29;20514;-72
2022/10/15 13:46:30;;;;;;;0.63;0.30;;;18.30;1.00;;;;;;4956992;29;20451;-73
2022/10/15 13:49:03;;;;;;;0.60;0.10;;;18.30;1.00;;;;;;4943885;29;20911;-72
2022/10/15 13:51:41;;;;;;;0.60;0.10;;;18.30;1.00;;;;;;4946249;29;20979;-73
2022/10/15 13:54:14;;;;;;;0.60;0.10;;;18.40;1.00;;;;;;4955940;29;20451;-72
2022/10/15 13:56:43;;;;;;;0.60;0.10;;;18.40;1.00;;;;;;4957415;29;20570;-76
2022/10/15 13:59:22;;;;;;;0.60;0.10;;;18.40;1.00;;;;;;4956053;29;20949;-76
2022/10/15 14:01:54;;;;;;;0.60;0.10;;;18.40;1.00;;;;;;4955751;29;20537;-76
2022/10/15 14:04:23;;;;;;;0.60;0.10;;;18.40;1.00;;;;;;4956135;29;20489;-76
2022/10/15 14:07:00;;;;;;;0.60;0.10;;;18.40;1.00;;;;;;4948973;29;20495;-76
2022/10/15 14:09:34;;;;;;;0.60;0.10;;;18.30;1.00;;;;;;4948115;29;20455;-76
2022/10/15 14:12:05;;;;;;;0.60;0.17;;;18.30;1.00;;;;;;4946203;29;20478;-76
2022/10/15 14:14:36;;;;;;;0.60;0.10;;;18.30;1.00;;;;;;4952080;29;20451;-75
2022/10/15 14:17:06;;;;;;;0.60;0.10;;;18.30;1.00;;;;;;4954979;29;20482;-76
2022/10/15 14:19:38;;;;;;;0.60;0.10;;;18.30;1.00;;;;;;4955110;29;20458;-77
2022/10/15 14:22:06;;;;;;;0.60;0.10;;;18.30;1.00;;;;;;4954853;28;20514;-76
2022/10/15 14:24:37;;;;;;;0.60;0.10;;;18.30;1.00;;;;;;4955806;29;20514;-76
2022/10/15 14:27:08;;;;;;;0.60;0.10;;;18.30;1.00;;;;;;4951289;29;20462;-77
2022/10/15 14:29:41;;;;;;;0.60;0.10;;;18.30;1.00;;;;;;4948487;29;20451;-76
2022/10/15 14:32:21;;;;;;;0.60;0.10;;;18.20;1.00;;;;;;4955073;28;20541;-77
2022/10/15 14:34:50;;;;;;;2.60;2.50;;;18.20;1.00;;;;;;4955658;29;20522;-76
2022/10/15 14:37:46;;;;;;;0.60;0.10;;;18.10;1.00;;;;;;4954713;29;20474;-76
2022/10/15 14:40:18;;;;;;;0.60;0.10;;;18.10;1.00;;;;;;4950397;29;20466;-76
2022/10/15 14:42:48;;;;;;;0.60;0.10;;;18.20;1.00;;;;;;4949293;29;20482;-76
2022/10/15 14:45:25;;;;;;;0.60;0.10;;;18.20;1.00;;;;;;4942665;29;20459;-76
2022/10/15 14:47:55;;;;;;;0.60;0.10;;;18.10;1.00;;;;;;4953960;29;20454;-76
2022/10/15 14:50:26;;;;;;;0.70;0.60;;;18.20;1.00;;;;;;4954485;29;20467;-76
2022/10/15 14:52:55;;;;;;;0.60;0.10;;;18.10;1.00;;;;;;4936493;29;20472;-77
2022/10/15 14:55:31;;;;;;;1.00;0.83;;;18.10;1.00;;;;;;4954027;29;20487;-77
2022/10/15 14:58:02;;;;;;;0.60;0.10;;;18.10;1.00;;;;;;4952685;29;20482;-76
2022/10/15 15:00:38;;;;;;;0.60;0.10;;;18.10;1.00;;;;;;4953874;29;20451;-76
2022/10/15 15:03:07;;;;;;;0.60;0.10;;;18.10;1.00;;;;;;4956575;28;20458;-76
2022/10/15 15:05:45;;;;;;;0.60;0.10;;;18.10;1.00;;;;;;4956970;29;20467;-76
2022/10/15 15:08:13;;;;;;;0.60;0.10;;;18.00;1.00;;;;;;4940227;29;20444;-76
2022/10/15 15:10:42;;;;;;;0.60;0.10;;;18.00;1.00;;;;;;4948932;29;20475;-76
2022/10/15 15:13:12;;;;;;;0.60;0.10;;;18.00;1.00;;;;;;4948450;29;20473;-77
2022/10/15 15:15:41;;;;;;;0.60;0.10;;;18.00;1.00;;;;;;4949064;29;20879;-75
2022/10/15 15:18:10;;;;;;;0.60;0.10;;;18.00;1.00;;;;;;4952756;29;20483;-76
2022/10/15 15:20:39;;;;;;;0.60;0.10;;;18.00;1.00;;;;;;4948121;29;20869;-77
2022/10/15 15:23:12;;;;;;;0.60;0.10;;;18.10;1.00;;;;;;4955639;29;20477;-75
2022/10/15 15:25:41;;;;;;;0.60;0.10;;;18.00;1.00;;;;;;4957481;29;20514;-76
2022/10/15 15:28:14;;;;;;;0.60;0.10;;;18.10;1.00;;;;;;4957344;29;20461;-76
2022/10/15 15:30:44;;;;;;;0.60;0.10;;;18.10;1.00;;;;;;4957373;28;20474;-76
2022/10/15 15:33:14;;;;;;;0.60;0.10;;;18.00;1.00;;;;;;4957108;29;20478;-76
2022/10/15 15:35:49;;;;;;;0.60;0.10;;;18.10;1.00;;;;;;4957059;29;20997;-77
2022/10/15 15:38:17;;;;;;;2.73;1.90;;;18.00;1.00;;;;;;4957335;29;20485;-76
2022/10/15 15:40:45;;;;;;;0.60;0.10;;;18.00;1.00;;;;;;4956941;28;20487;-75
2022/10/15 15:43:15;;;;;;;0.60;0.10;;;18.00;1.00;;;;;;4956684;29;20534;-77
2022/10/15 15:45:46;;;;;;;0.60;0.10;;;18.00;1.00;;;;;;4958834;29;20447;-74
2022/10/15 15:48:14;;;;;;;0.60;0.10;;;18.00;1.00;;;;;;4957012;29;20451;-75
2022/10/15 15:50:42;;;;;;;0.60;0.20;;;18.00;1.00;;;;;;4956474;29;20451;-76
2022/10/15 15:53:12;;;;;;;0.60;0.10;;;18.00;1.00;;;;;;4956754;29;20455;-77
2022/10/15 15:55:40;;;;;;;0.60;0.10;;;18.00;1.00;;;;;;4956967;29;20458;-77
2022/10/15 15:58:08;;;;;;;0.60;0.10;;;18.00;1.00;;;;;;4956409;29;20993;-76
2022/10/15 16:00:36;;;;;;;0.60;0.10;;;18.00;1.00;;;;;;4956861;29;20487;-74
2022/10/15 16:03:05;;;;;;;28.30;27.00;;;18.00;1.00;;;;;;4957068;29;20471;-75
2022/10/15 16:05:33;;;;;;;0.60;0.10;;;18.00;1.00;;;;;;4958242;29;20514;-76
2022/10/15 16:08:01;;;;;;;0.60;0.20;;;17.90;1.00;;;;;;4957548;29;20819;-77
2022/10/15 16:10:29;;;;;;;0.60;0.10;;;17.90;1.00;;;;;;4957583;29;20447;-74
2022/10/15 16:12:57;;;;;;;0.60;0.10;;;17.90;1.00;;;;;;4966013;28;20451;-75
2022/10/15 16:15:24;;;;;;;0.60;0.10;;;17.90;1.00;;;;;;4975611;23;20522;-78
2022/10/15 16:17:53;;;;;;;0.60;0.10;;;17.90;1.00;;;;;;4940263;29;20490;-78
2022/10/15 16:20:22;;;;;;;0.60;0.10;;;17.90;1.00;;;;;;4944564;28;20472;-77
2022/10/15 16:22:50;;;;;;;0.60;0.20;;;17.90;1.00;;;;;;4930214;29;20464;-77
2022/10/15 16:25:18;;;;;;;0.60;0.10;;;17.90;1.00;;;;;;4958126;29;20468;-78
2022/10/15 16:27:51;;;;;;;0.60;0.10;;;17.90;1.00;;;;;;4954381;29;20463;-79
2022/10/15 16:30:19;;;;;;;0.60;0.10;;;17.90;1.00;;;;;;4961507;29;20527;-78
2022/10/15 16:32:47;;;;;;;0.60;0.10;;;17.90;1.00;;;;;;4941803;29;20466;-78
2022/10/15 16:35:15;;;;;;;0.60;0.10;;;17.80;1.00;;;;;;4956338;29;20475;-79
2022/10/15 16:37:44;;;;;;;0.60;0.20;;;17.80;1.00;;;;;;4958671;29;20498;-81
2022/10/15 16:40:13;;;;;;;0.60;0.20;;;17.80;1.00;;;;;;4957390;29;20447;-78
2022/10/15 16:42:41;;;;;;;0.60;0.10;;;17.80;1.00;;;;;;4954192;29;20499;-78
2022/10/15 16:45:10;;;;;;;0.60;0.17;;;17.70;1.00;;;;;;4946483;29;20871;-79
2022/10/15 16:47:38;;;;;;;0.60;0.10;;;17.70;1.00;;;;;;4936593;29;20494;-77
2022/10/15 16:50:07;;;;;;;2.10;0.50;;;17.70;1.00;;;;;;4944274;29;20444;-77
2022/10/15 16:52:35;;;;;;;1.77;1.67;;;17.70;1.00;;;;;;4950317;29;20451;-79
2022/10/15 16:55:05;;;;;;;2.80;2.53;;;17.70;1.00;;;;;;4958428;29;20471;-78
2022/10/15 16:57:33;;;;;;;0.60;0.10;;;17.70;1.00;;;;;;4959822;29;20972;-77
2022/10/15 17:00:01;;;;;;;0.70;0.40;;;17.70;1.00;;;;;;4959754;29;20891;-79
2022/10/15 17:02:29;;;;;;;0.60;0.10;;;17.70;1.00;;;;;;4955338;29;20515;-77
2022/10/15 17:04:56;;;;;;;0.60;0.10;;;17.70;1.00;;;;;;4939699;29;20476;-79
2022/10/15 17:07:24;;;;;;;0.70;0.50;;;17.70;1.00;;;;;;4939270;29;20511;-77
2022/10/15 17:09:53;;;;;;;0.60;0.13;;;17.70;1.00;;;;;;4940837;29;20503;-77
2022/10/15 17:12:22;;;;;;;0.60;0.20;;;17.70;1.00;;;;;;4953120;29;20502;-77
2022/10/15 17:14:51;;;;;;;0.60;0.10;;;17.70;1.00;;;;;;4954768;29;20533;-77
2022/10/15 17:17:19;;;;;;;0.60;0.10;;;17.70;1.00;;;;;;4956031;29;20455;-77